sensor_id;sensor_type;location;lat;lon;timestamp;P1;durP1;ratioP1;P2;durP2;ratioP2
11970;SDS011;6045;42.682;23.294;2022-12-07T00:01:22;7.73;;;4.00;;
11970;SDS011;6045;42.682;23.294;2022-12-07T00:03:51;9.90;;;5.00;;
11970;SDS011;6045;42.682;23.294;2022-12-07T00:06:19;10.17;;;5.33;;
11970;SDS011;6045;42.682;23.294;2022-12-07T00:08:46;11.63;;;6.60;;
11970;SDS011;6045;42.682;23.294;2022-12-07T00:11:14;8.80;;;5.60;;
11970;SDS011;6045;42.682;23.294;2022-12-07T00:13:42;12.20;;;5.83;;
11970;SDS011;6045;42.682;23.294;2022-12-07T00:16:11;9.83;;;5.53;;
11970;SDS011;6045;42.682;23.294;2022-12-07T00:18:39;8.07;;;4.97;;
11970;SDS011;6045;42.682;23.294;2022-12-07T00:21:09;16.23;;;5.67;;
11970;SDS011;6045;42.682;23.294;2022-12-07T00:23:37;8.53;;;5.40;;
11970;SDS011;6045;42.682;23.294;2022-12-07T00:26:05;10.63;;;6.40;;
11970;SDS011;6045;42.682;23.294;2022-12-07T00:28:32;11.53;;;6.20;;
11970;SDS011;6045;42.682;23.294;2022-12-07T00:31:00;12.60;;;6.60;;
11970;SDS011;6045;42.682;23.294;2022-12-07T00:33:29;14.13;;;6.20;;
11970;SDS011;6045;42.682;23.294;2022-12-07T00:35:56;10.67;;;5.57;;
11970;SDS011;6045;42.682;23.294;2022-12-07T00:38:23;11.00;;;5.53;;
11970;SDS011;6045;42.682;23.294;2022-12-07T00:40:54;11.47;;;4.80;;
11970;SDS011;6045;42.682;23.294;2022-12-07T00:43:22;10.87;;;6.10;;
11970;SDS011;6045;42.682;23.294;2022-12-07T00:45:48;14.10;;;6.13;;
11970;SDS011;6045;42.682;23.294;2022-12-07T00:48:15;9.83;;;5.63;;
11970;SDS011;6045;42.682;23.294;2022-12-07T00:50:43;13.23;;;6.77;;
11970;SDS011;6045;42.682;23.294;2022-12-07T00:53:10;11.90;;;6.73;;
11970;SDS011;6045;42.682;23.294;2022-12-07T00:55:37;10.77;;;5.17;;
11970;SDS011;6045;42.682;23.294;2022-12-07T00:58:04;10.93;;;4.97;;
11970;SDS011;6045;42.682;23.294;2022-12-07T01:00:31;15.63;;;7.10;;
11970;SDS011;6045;42.682;23.294;2022-12-07T01:02:58;12.67;;;5.33;;
11970;SDS011;6045;42.682;23.294;2022-12-07T01:05:25;14.23;;;7.87;;
11970;SDS011;6045;42.682;23.294;2022-12-07T01:07:53;14.30;;;7.70;;
11970;SDS011;6045;42.682;23.294;2022-12-07T01:10:20;14.27;;;5.93;;
11970;SDS011;6045;42.682;23.294;2022-12-07T01:12:47;8.13;;;5.23;;
11970;SDS011;6045;42.682;23.294;2022-12-07T01:15:13;10.77;;;7.77;;
11970;SDS011;6045;42.682;23.294;2022-12-07T01:17:40;8.63;;;5.90;;
11970;SDS011;6045;42.682;23.294;2022-12-07T01:20:07;11.20;;;7.00;;
11970;SDS011;6045;42.682;23.294;2022-12-07T01:22:36;13.73;;;7.13;;
11970;SDS011;6045;42.682;23.294;2022-12-07T01:25:05;12.07;;;8.57;;
11970;SDS011;6045;42.682;23.294;2022-12-07T01:27:32;12.43;;;7.33;;
11970;SDS011;6045;42.682;23.294;2022-12-07T01:30:00;10.60;;;6.40;;
11970;SDS011;6045;42.682;23.294;2022-12-07T01:32:27;11.43;;;5.63;;
11970;SDS011;6045;42.682;23.294;2022-12-07T01:34:54;18.67;;;8.67;;
11970;SDS011;6045;42.682;23.294;2022-12-07T01:37:21;8.37;;;7.23;;
11970;SDS011;6045;42.682;23.294;2022-12-07T01:39:48;20.13;;;8.93;;
11970;SDS011;6045;42.682;23.294;2022-12-07T01:42:17;20.10;;;7.57;;
11970;SDS011;6045;42.682;23.294;2022-12-07T01:47:48;17.33;;;7.90;;
11970;SDS011;6045;42.682;23.294;2022-12-07T01:50:19;17.23;;;7.67;;
11970;SDS011;6045;42.682;23.294;2022-12-07T01:52:50;16.57;;;7.07;;
11970;SDS011;6045;42.682;23.294;2022-12-07T01:55:20;13.13;;;7.47;;
11970;SDS011;6045;42.682;23.294;2022-12-07T01:57:48;11.63;;;6.87;;
11970;SDS011;6045;42.682;23.294;2022-12-07T02:00:17;12.60;;;8.50;;
11970;SDS011;6045;42.682;23.294;2022-12-07T02:02:45;11.50;;;6.90;;
11970;SDS011;6045;42.682;23.294;2022-12-07T02:05:14;7.10;;;5.07;;
11970;SDS011;6045;42.682;23.294;2022-12-07T02:07:42;10.37;;;6.13;;
11970;SDS011;6045;42.682;23.294;2022-12-07T02:10:14;13.07;;;7.47;;
11970;SDS011;6045;42.682;23.294;2022-12-07T02:12:42;10.43;;;6.27;;
11970;SDS011;6045;42.682;23.294;2022-12-07T02:15:12;13.37;;;6.93;;
11970;SDS011;6045;42.682;23.294;2022-12-07T02:17:40;13.23;;;7.97;;
11970;SDS011;6045;42.682;23.294;2022-12-07T02:20:21;12.50;;;7.40;;
11970;SDS011;6045;42.682;23.294;2022-12-07T02:23:00;10.57;;;6.63;;
11970;SDS011;6045;42.682;23.294;2022-12-07T02:26:05;10.60;;;5.70;;
11970;SDS011;6045;42.682;23.294;2022-12-07T02:28:56;12.23;;;7.60;;
11970;SDS011;6045;42.682;23.294;2022-12-07T02:31:37;9.20;;;5.13;;
11970;SDS011;6045;42.682;23.294;2022-12-07T02:34:12;13.77;;;7.20;;
11970;SDS011;6045;42.682;23.294;2022-12-07T02:36:46;13.47;;;7.17;;
11970;SDS011;6045;42.682;23.294;2022-12-07T02:39:23;12.73;;;8.57;;
11970;SDS011;6045;42.682;23.294;2022-12-07T02:41:55;13.60;;;7.13;;
11970;SDS011;6045;42.682;23.294;2022-12-07T02:44:29;17.93;;;8.50;;
11970;SDS011;6045;42.682;23.294;2022-12-07T02:46:59;12.40;;;6.50;;
11970;SDS011;6045;42.682;23.294;2022-12-07T02:49:29;14.57;;;7.30;;
11970;SDS011;6045;42.682;23.294;2022-12-07T02:51:57;7.53;;;6.03;;
11970;SDS011;6045;42.682;23.294;2022-12-07T02:54:24;18.10;;;7.70;;
11970;SDS011;6045;42.682;23.294;2022-12-07T02:56:52;16.70;;;6.20;;
11970;SDS011;6045;42.682;23.294;2022-12-07T02:59:29;12.70;;;7.73;;
11970;SDS011;6045;42.682;23.294;2022-12-07T03:02:17;9.73;;;5.50;;
11970;SDS011;6045;42.682;23.294;2022-12-07T03:04:51;13.37;;;7.57;;
11970;SDS011;6045;42.682;23.294;2022-12-07T03:07:29;12.87;;;7.87;;
11970;SDS011;6045;42.682;23.294;2022-12-07T03:10:02;9.67;;;5.87;;
11970;SDS011;6045;42.682;23.294;2022-12-07T03:12:38;7.87;;;5.63;;
11970;SDS011;6045;42.682;23.294;2022-12-07T03:15:16;11.77;;;7.20;;
11970;SDS011;6045;42.682;23.294;2022-12-07T03:17:49;11.17;;;6.47;;
11970;SDS011;6045;42.682;23.294;2022-12-07T03:20:18;11.90;;;7.63;;
11970;SDS011;6045;42.682;23.294;2022-12-07T03:22:48;9.80;;;6.53;;
11970;SDS011;6045;42.682;23.294;2022-12-07T03:25:17;10.80;;;6.53;;
11970;SDS011;6045;42.682;23.294;2022-12-07T03:27:45;12.20;;;6.30;;
11970;SDS011;6045;42.682;23.294;2022-12-07T03:30:19;9.43;;;6.23;;
11970;SDS011;6045;42.682;23.294;2022-12-07T03:32:49;12.87;;;7.83;;
11970;SDS011;6045;42.682;23.294;2022-12-07T03:35:20;15.03;;;7.27;;
11970;SDS011;6045;42.682;23.294;2022-12-07T03:37:51;10.63;;;6.57;;
11970;SDS011;6045;42.682;23.294;2022-12-07T03:40:22;11.17;;;6.47;;
11970;SDS011;6045;42.682;23.294;2022-12-07T03:42:54;8.53;;;5.63;;
11970;SDS011;6045;42.682;23.294;2022-12-07T03:45:27;12.43;;;6.87;;
11970;SDS011;6045;42.682;23.294;2022-12-07T03:48:00;13.33;;;6.60;;
11970;SDS011;6045;42.682;23.294;2022-12-07T03:50:35;8.17;;;6.57;;
11970;SDS011;6045;42.682;23.294;2022-12-07T03:53:08;12.57;;;6.97;;
11970;SDS011;6045;42.682;23.294;2022-12-07T03:55:41;7.40;;;5.53;;
11970;SDS011;6045;42.682;23.294;2022-12-07T03:58:12;9.60;;;6.60;;
11970;SDS011;6045;42.682;23.294;2022-12-07T04:00:45;14.07;;;6.60;;
11970;SDS011;6045;42.682;23.294;2022-12-07T04:03:13;14.87;;;7.93;;
11970;SDS011;6045;42.682;23.294;2022-12-07T04:05:40;7.53;;;5.27;;
11970;SDS011;6045;42.682;23.294;2022-12-07T04:08:07;11.83;;;6.30;;
11970;SDS011;6045;42.682;23.294;2022-12-07T04:10:34;8.43;;;5.97;;
11970;SDS011;6045;42.682;23.294;2022-12-07T04:13:01;13.27;;;7.70;;
11970;SDS011;6045;42.682;23.294;2022-12-07T04:15:28;14.03;;;5.97;;
11970;SDS011;6045;42.682;23.294;2022-12-07T04:17:56;13.30;;;5.83;;
11970;SDS011;6045;42.682;23.294;2022-12-07T04:20:23;12.20;;;7.17;;
11970;SDS011;6045;42.682;23.294;2022-12-07T04:22:50;11.77;;;5.13;;
11970;SDS011;6045;42.682;23.294;2022-12-07T04:25:16;12.87;;;7.83;;
11970;SDS011;6045;42.682;23.294;2022-12-07T04:27:43;10.70;;;5.87;;
11970;SDS011;6045;42.682;23.294;2022-12-07T04:30:10;11.37;;;7.63;;
11970;SDS011;6045;42.682;23.294;2022-12-07T04:32:37;14.93;;;7.17;;
11970;SDS011;6045;42.682;23.294;2022-12-07T04:35:06;13.07;;;6.90;;
11970;SDS011;6045;42.682;23.294;2022-12-07T04:37:34;11.37;;;6.37;;
11970;SDS011;6045;42.682;23.294;2022-12-07T04:40:00;10.67;;;6.40;;
11970;SDS011;6045;42.682;23.294;2022-12-07T04:42:27;14.33;;;9.17;;
11970;SDS011;6045;42.682;23.294;2022-12-07T04:44:54;12.10;;;6.77;;
11970;SDS011;6045;42.682;23.294;2022-12-07T04:47:21;29.13;;;9.63;;
11970;SDS011;6045;42.682;23.294;2022-12-07T04:49:48;20.40;;;8.90;;
11970;SDS011;6045;42.682;23.294;2022-12-07T04:52:16;17.30;;;8.30;;
11970;SDS011;6045;42.682;23.294;2022-12-07T04:54:42;15.13;;;8.60;;
11970;SDS011;6045;42.682;23.294;2022-12-07T04:57:17;16.57;;;7.17;;
11970;SDS011;6045;42.682;23.294;2022-12-07T04:59:43;13.20;;;7.73;;
11970;SDS011;6045;42.682;23.294;2022-12-07T05:02:10;17.93;;;7.90;;
11970;SDS011;6045;42.682;23.294;2022-12-07T05:04:37;13.97;;;8.43;;
11970;SDS011;6045;42.682;23.294;2022-12-07T05:07:03;11.23;;;7.30;;
11970;SDS011;6045;42.682;23.294;2022-12-07T05:09:31;9.37;;;6.87;;
11970;SDS011;6045;42.682;23.294;2022-12-07T05:12:01;14.13;;;7.93;;
11970;SDS011;6045;42.682;23.294;2022-12-07T05:14:27;13.90;;;8.33;;
11970;SDS011;6045;42.682;23.294;2022-12-07T05:16:54;15.20;;;8.57;;
11970;SDS011;6045;42.682;23.294;2022-12-07T05:19:21;11.93;;;7.03;;
11970;SDS011;6045;42.682;23.294;2022-12-07T05:21:48;10.07;;;6.97;;
11970;SDS011;6045;42.682;23.294;2022-12-07T05:24:15;12.20;;;6.07;;
11970;SDS011;6045;42.682;23.294;2022-12-07T05:26:43;11.10;;;6.37;;
11970;SDS011;6045;42.682;23.294;2022-12-07T05:29:11;13.10;;;6.57;;
11970;SDS011;6045;42.682;23.294;2022-12-07T05:31:38;16.53;;;9.10;;
11970;SDS011;6045;42.682;23.294;2022-12-07T05:34:06;16.07;;;7.17;;
11970;SDS011;6045;42.682;23.294;2022-12-07T05:36:33;11.87;;;5.67;;
11970;SDS011;6045;42.682;23.294;2022-12-07T05:38:59;10.67;;;5.37;;
11970;SDS011;6045;42.682;23.294;2022-12-07T05:41:26;13.83;;;7.03;;
11970;SDS011;6045;42.682;23.294;2022-12-07T05:44:12;20.50;;;9.50;;
11970;SDS011;6045;42.682;23.294;2022-12-07T05:46:39;14.77;;;7.97;;
11970;SDS011;6045;42.682;23.294;2022-12-07T05:49:05;17.87;;;9.57;;
11970;SDS011;6045;42.682;23.294;2022-12-07T05:51:32;14.17;;;8.53;;
11970;SDS011;6045;42.682;23.294;2022-12-07T05:53:59;14.97;;;6.87;;
11970;SDS011;6045;42.682;23.294;2022-12-07T05:56:26;12.17;;;6.97;;
11970;SDS011;6045;42.682;23.294;2022-12-07T05:58:52;11.03;;;6.83;;
11970;SDS011;6045;42.682;23.294;2022-12-07T06:01:38;13.70;;;7.23;;
11970;SDS011;6045;42.682;23.294;2022-12-07T06:04:05;8.87;;;7.27;;
11970;SDS011;6045;42.682;23.294;2022-12-07T06:06:31;13.10;;;6.23;;
11970;SDS011;6045;42.682;23.294;2022-12-07T06:08:58;12.63;;;7.13;;
11970;SDS011;6045;42.682;23.294;2022-12-07T06:11:25;12.83;;;7.37;;
11970;SDS011;6045;42.682;23.294;2022-12-07T06:14:09;14.23;;;8.23;;
11970;SDS011;6045;42.682;23.294;2022-12-07T06:16:42;10.50;;;5.70;;
11970;SDS011;6045;42.682;23.294;2022-12-07T06:19:09;10.97;;;7.27;;
11970;SDS011;6045;42.682;23.294;2022-12-07T06:21:36;14.77;;;7.07;;
11970;SDS011;6045;42.682;23.294;2022-12-07T06:24:03;12.47;;;6.37;;
11970;SDS011;6045;42.682;23.294;2022-12-07T06:26:30;10.20;;;6.40;;
11970;SDS011;6045;42.682;23.294;2022-12-07T06:28:57;10.17;;;8.20;;
11970;SDS011;6045;42.682;23.294;2022-12-07T06:31:25;10.20;;;7.47;;
11970;SDS011;6045;42.682;23.294;2022-12-07T06:33:56;14.17;;;7.60;;
11970;SDS011;6045;42.682;23.294;2022-12-07T06:36:23;17.57;;;7.43;;
11970;SDS011;6045;42.682;23.294;2022-12-07T06:38:50;12.80;;;7.07;;
11970;SDS011;6045;42.682;23.294;2022-12-07T06:41:17;12.70;;;7.70;;
11970;SDS011;6045;42.682;23.294;2022-12-07T06:43:43;15.67;;;7.33;;
11970;SDS011;6045;42.682;23.294;2022-12-07T06:46:10;14.63;;;7.27;;
11970;SDS011;6045;42.682;23.294;2022-12-07T06:48:37;13.30;;;7.40;;
11970;SDS011;6045;42.682;23.294;2022-12-07T06:51:05;12.93;;;5.97;;
11970;SDS011;6045;42.682;23.294;2022-12-07T06:53:36;11.83;;;7.97;;
11970;SDS011;6045;42.682;23.294;2022-12-07T06:56:03;9.20;;;5.97;;
11970;SDS011;6045;42.682;23.294;2022-12-07T06:58:30;13.97;;;7.30;;
11970;SDS011;6045;42.682;23.294;2022-12-07T07:00:57;13.50;;;8.03;;
11970;SDS011;6045;42.682;23.294;2022-12-07T07:03:24;15.30;;;9.23;;
11970;SDS011;6045;42.682;23.294;2022-12-07T07:05:51;12.83;;;8.83;;
11970;SDS011;6045;42.682;23.294;2022-12-07T07:08:19;22.10;;;11.33;;
11970;SDS011;6045;42.682;23.294;2022-12-07T07:10:46;13.93;;;9.60;;
11970;SDS011;6045;42.682;23.294;2022-12-07T07:13:12;23.30;;;12.00;;
11970;SDS011;6045;42.682;23.294;2022-12-07T07:15:39;21.77;;;13.47;;
11970;SDS011;6045;42.682;23.294;2022-12-07T07:18:06;29.20;;;16.47;;
11970;SDS011;6045;42.682;23.294;2022-12-07T07:20:33;25.17;;;14.40;;
11970;SDS011;6045;42.682;23.294;2022-12-07T07:23:00;19.33;;;13.17;;
11970;SDS011;6045;42.682;23.294;2022-12-07T07:25:28;19.10;;;12.43;;
11970;SDS011;6045;42.682;23.294;2022-12-07T07:27:55;18.80;;;11.50;;
11970;SDS011;6045;42.682;23.294;2022-12-07T07:30:21;15.53;;;8.63;;
11970;SDS011;6045;42.682;23.294;2022-12-07T07:32:48;19.93;;;11.07;;
11970;SDS011;6045;42.682;23.294;2022-12-07T07:35:15;13.47;;;8.87;;
11970;SDS011;6045;42.682;23.294;2022-12-07T07:37:42;14.23;;;8.27;;
11970;SDS011;6045;42.682;23.294;2022-12-07T07:40:09;14.07;;;8.90;;
11970;SDS011;6045;42.682;23.294;2022-12-07T07:42:38;18.23;;;9.17;;
11970;SDS011;6045;42.682;23.294;2022-12-07T07:45:05;19.13;;;10.90;;
11970;SDS011;6045;42.682;23.294;2022-12-07T07:47:35;29.00;;;10.80;;
11970;SDS011;6045;42.682;23.294;2022-12-07T07:50:02;13.20;;;8.47;;
11970;SDS011;6045;42.682;23.294;2022-12-07T07:52:30;16.57;;;10.47;;
11970;SDS011;6045;42.682;23.294;2022-12-07T07:54:57;21.30;;;10.83;;
11970;SDS011;6045;42.682;23.294;2022-12-07T07:57:24;20.63;;;10.07;;
11970;SDS011;6045;42.682;23.294;2022-12-07T07:59:52;12.50;;;9.70;;
11970;SDS011;6045;42.682;23.294;2022-12-07T08:02:21;18.40;;;11.47;;
11970;SDS011;6045;42.682;23.294;2022-12-07T08:04:48;18.93;;;10.57;;
11970;SDS011;6045;42.682;23.294;2022-12-07T08:07:15;18.87;;;11.00;;
11970;SDS011;6045;42.682;23.294;2022-12-07T08:09:42;15.87;;;9.90;;
11970;SDS011;6045;42.682;23.294;2022-12-07T08:12:09;17.80;;;9.60;;
11970;SDS011;6045;42.682;23.294;2022-12-07T08:14:36;19.97;;;11.40;;
11970;SDS011;6045;42.682;23.294;2022-12-07T08:17:04;19.40;;;10.20;;
11970;SDS011;6045;42.682;23.294;2022-12-07T08:19:31;17.03;;;9.83;;
11970;SDS011;6045;42.682;23.294;2022-12-07T08:21:57;16.33;;;10.83;;
11970;SDS011;6045;42.682;23.294;2022-12-07T08:24:24;16.60;;;10.10;;
11970;SDS011;6045;42.682;23.294;2022-12-07T08:26:51;14.37;;;11.67;;
11970;SDS011;6045;42.682;23.294;2022-12-07T08:29:18;18.60;;;10.73;;
11970;SDS011;6045;42.682;23.294;2022-12-07T08:31:45;15.93;;;10.10;;
11970;SDS011;6045;42.682;23.294;2022-12-07T08:34:14;17.13;;;10.03;;
11970;SDS011;6045;42.682;23.294;2022-12-07T08:36:40;21.73;;;11.90;;
11970;SDS011;6045;42.682;23.294;2022-12-07T08:39:07;19.93;;;12.00;;
11970;SDS011;6045;42.682;23.294;2022-12-07T08:41:34;23.13;;;13.63;;
11970;SDS011;6045;42.682;23.294;2022-12-07T08:44:01;23.67;;;12.80;;
11970;SDS011;6045;42.682;23.294;2022-12-07T08:46:29;18.33;;;11.83;;
11970;SDS011;6045;42.682;23.294;2022-12-07T08:49:02;25.23;;;11.90;;
11970;SDS011;6045;42.682;23.294;2022-12-07T08:51:32;19.00;;;11.87;;
11970;SDS011;6045;42.682;23.294;2022-12-07T08:54:00;17.37;;;12.00;;
11970;SDS011;6045;42.682;23.294;2022-12-07T08:56:30;19.70;;;10.10;;
11970;SDS011;6045;42.682;23.294;2022-12-07T08:58:57;15.77;;;10.30;;
11970;SDS011;6045;42.682;23.294;2022-12-07T09:01:24;24.37;;;12.93;;
11970;SDS011;6045;42.682;23.294;2022-12-07T09:03:52;19.43;;;10.67;;
11970;SDS011;6045;42.682;23.294;2022-12-07T09:06:18;21.03;;;10.90;;
11970;SDS011;6045;42.682;23.294;2022-12-07T09:08:47;19.93;;;10.90;;
11970;SDS011;6045;42.682;23.294;2022-12-07T09:11:20;18.00;;;9.43;;
11970;SDS011;6045;42.682;23.294;2022-12-07T09:13:47;15.43;;;8.63;;
11970;SDS011;6045;42.682;23.294;2022-12-07T09:16:14;15.97;;;9.40;;
11970;SDS011;6045;42.682;23.294;2022-12-07T09:18:41;13.27;;;8.63;;
11970;SDS011;6045;42.682;23.294;2022-12-07T09:21:08;14.53;;;9.73;;
11970;SDS011;6045;42.682;23.294;2022-12-07T09:23:35;14.47;;;9.23;;
11970;SDS011;6045;42.682;23.294;2022-12-07T09:26:03;10.63;;;7.17;;
11970;SDS011;6045;42.682;23.294;2022-12-07T09:28:31;16.93;;;9.97;;
11970;SDS011;6045;42.682;23.294;2022-12-07T09:30:58;16.67;;;9.27;;
11970;SDS011;6045;42.682;23.294;2022-12-07T09:33:25;11.53;;;7.80;;
11970;SDS011;6045;42.682;23.294;2022-12-07T09:35:52;14.07;;;9.90;;
11970;SDS011;6045;42.682;23.294;2022-12-07T09:38:19;16.27;;;9.27;;
11970;SDS011;6045;42.682;23.294;2022-12-07T09:40:46;14.60;;;8.70;;
11970;SDS011;6045;42.682;23.294;2022-12-07T09:43:15;15.10;;;8.70;;
11970;SDS011;6045;42.682;23.294;2022-12-07T09:45:44;14.80;;;7.90;;
11970;SDS011;6045;42.682;23.294;2022-12-07T09:48:15;16.07;;;9.77;;
11970;SDS011;6045;42.682;23.294;2022-12-07T09:50:45;15.53;;;7.33;;
11970;SDS011;6045;42.682;23.294;2022-12-07T09:53:14;17.17;;;9.07;;
11970;SDS011;6045;42.682;23.294;2022-12-07T09:55:51;13.60;;;9.23;;
11970;SDS011;6045;42.682;23.294;2022-12-07T09:58:21;14.43;;;8.77;;
11970;SDS011;6045;42.682;23.294;2022-12-07T10:00:50;26.57;;;8.77;;
11970;SDS011;6045;42.682;23.294;2022-12-07T10:03:19;17.27;;;8.23;;
11970;SDS011;6045;42.682;23.294;2022-12-07T10:05:47;14.30;;;7.43;;
11970;SDS011;6045;42.682;23.294;2022-12-07T10:08:16;21.13;;;9.00;;
11970;SDS011;6045;42.682;23.294;2022-12-07T10:10:43;16.83;;;8.37;;
11970;SDS011;6045;42.682;23.294;2022-12-07T10:13:11;17.67;;;8.93;;
11970;SDS011;6045;42.682;23.294;2022-12-07T10:15:46;17.47;;;8.60;;
11970;SDS011;6045;42.682;23.294;2022-12-07T10:21:02;14.50;;;8.53;;
11970;SDS011;6045;42.682;23.294;2022-12-07T10:23:38;15.00;;;8.17;;
11970;SDS011;6045;42.682;23.294;2022-12-07T10:26:26;13.53;;;8.60;;
11970;SDS011;6045;42.682;23.294;2022-12-07T10:28:55;12.57;;;8.03;;
11970;SDS011;6045;42.682;23.294;2022-12-07T10:31:26;14.03;;;8.07;;
11970;SDS011;6045;42.682;23.294;2022-12-07T10:33:54;16.43;;;8.13;;
11970;SDS011;6045;42.682;23.294;2022-12-07T10:36:23;12.10;;;7.33;;
11970;SDS011;6045;42.682;23.294;2022-12-07T10:38:52;10.70;;;6.33;;
11970;SDS011;6045;42.682;23.294;2022-12-07T10:41:19;14.93;;;7.43;;
11970;SDS011;6045;42.682;23.294;2022-12-07T10:43:47;14.23;;;8.67;;
11970;SDS011;6045;42.682;23.294;2022-12-07T10:49:41;17.07;;;7.57;;
11970;SDS011;6045;42.682;23.294;2022-12-07T10:52:32;14.13;;;6.63;;
11970;SDS011;6045;42.682;23.294;2022-12-07T10:55:16;11.03;;;6.00;;
11970;SDS011;6045;42.682;23.294;2022-12-07T10:57:52;18.73;;;8.27;;
11970;SDS011;6045;42.682;23.294;2022-12-07T11:00:29;12.53;;;7.80;;
11970;SDS011;6045;42.682;23.294;2022-12-07T11:03:08;15.63;;;8.40;;
11970;SDS011;6045;42.682;23.294;2022-12-07T11:05:59;11.03;;;7.47;;
11970;SDS011;6045;42.682;23.294;2022-12-07T11:08:40;12.80;;;7.87;;
11970;SDS011;6045;42.682;23.294;2022-12-07T11:11:14;12.57;;;7.23;;
11970;SDS011;6045;42.682;23.294;2022-12-07T11:13:48;14.20;;;7.27;;
11970;SDS011;6045;42.682;23.294;2022-12-07T11:16:24;10.23;;;6.57;;
11970;SDS011;6045;42.682;23.294;2022-12-07T11:19:05;12.90;;;8.60;;
11970;SDS011;6045;42.682;23.294;2022-12-07T11:21:45;11.60;;;7.67;;
11970;SDS011;6045;42.682;23.294;2022-12-07T11:24:23;13.77;;;7.63;;
11970;SDS011;6045;42.682;23.294;2022-12-07T11:27:01;16.30;;;8.13;;
11970;SDS011;6045;42.682;23.294;2022-12-07T11:29:42;15.18;;;8.35;;
11970;SDS011;6045;42.682;23.294;2022-12-07T11:32:26;12.55;;;7.22;;
11970;SDS011;6045;42.682;23.294;2022-12-07T11:35:11;14.75;;;8.32;;
11970;SDS011;6045;42.682;23.294;2022-12-07T11:37:51;15.73;;;7.43;;
11970;SDS011;6045;42.682;23.294;2022-12-07T11:40:24;13.07;;;8.35;;
11970;SDS011;6045;42.682;23.294;2022-12-07T11:42:55;12.35;;;8.20;;
11970;SDS011;6045;42.682;23.294;2022-12-07T11:45:26;13.30;;;8.52;;
11970;SDS011;6045;42.682;23.294;2022-12-07T11:47:55;10.88;;;8.00;;
11970;SDS011;6045;42.682;23.294;2022-12-07T11:50:29;13.73;;;7.38;;
11970;SDS011;6045;42.682;23.294;2022-12-07T11:53:02;14.40;;;9.48;;
11970;SDS011;6045;42.682;23.294;2022-12-07T11:55:40;12.32;;;7.78;;
11970;SDS011;6045;42.682;23.294;2022-12-07T11:58:18;14.93;;;8.90;;
11970;SDS011;6045;42.682;23.294;2022-12-07T12:00:56;13.85;;;8.88;;
11970;SDS011;6045;42.682;23.294;2022-12-07T12:03:35;11.10;;;7.10;;
11970;SDS011;6045;42.682;23.294;2022-12-07T12:06:06;12.68;;;7.60;;
11970;SDS011;6045;42.682;23.294;2022-12-07T12:08:35;13.45;;;7.88;;
11970;SDS011;6045;42.682;23.294;2022-12-07T12:11:08;12.57;;;7.60;;
11970;SDS011;6045;42.682;23.294;2022-12-07T12:16:44;11.38;;;6.35;;
11970;SDS011;6045;42.682;23.294;2022-12-07T12:19:24;12.95;;;7.03;;
11970;SDS011;6045;42.682;23.294;2022-12-07T12:22:02;12.43;;;6.88;;
11970;SDS011;6045;42.682;23.294;2022-12-07T12:24:37;12.85;;;7.50;;
11970;SDS011;6045;42.682;23.294;2022-12-07T12:27:07;11.55;;;6.75;;
11970;SDS011;6045;42.682;23.294;2022-12-07T12:29:37;12.52;;;7.05;;
11970;SDS011;6045;42.682;23.294;2022-12-07T12:32:13;10.57;;;6.30;;
11970;SDS011;6045;42.682;23.294;2022-12-07T12:34:57;11.90;;;6.88;;
11970;SDS011;6045;42.682;23.294;2022-12-07T12:37:42;10.70;;;6.57;;
11970;SDS011;6045;42.682;23.294;2022-12-07T12:46:37;11.13;;;6.68;;
11970;SDS011;6045;42.682;23.294;2022-12-07T12:49:32;8.77;;;6.13;;
11970;SDS011;6045;42.682;23.294;2022-12-07T12:52:45;10.88;;;7.47;;
11970;SDS011;6045;42.682;23.294;2022-12-07T12:55:29;12.88;;;7.97;;
11970;SDS011;6045;42.682;23.294;2022-12-07T12:58:30;11.20;;;6.93;;
11970;SDS011;6045;42.682;23.294;2022-12-07T13:06:53;11.32;;;7.15;;
11970;SDS011;6045;42.682;23.294;2022-12-07T13:09:21;9.73;;;6.80;;
11970;SDS011;6045;42.682;23.294;2022-12-07T13:11:55;10.38;;;6.30;;
11970;SDS011;6045;42.682;23.294;2022-12-07T13:14:43;11.07;;;6.97;;
11970;SDS011;6045;42.682;23.294;2022-12-07T13:23:12;11.57;;;6.80;;
11970;SDS011;6045;42.682;23.294;2022-12-07T13:25:45;10.02;;;6.45;;
11970;SDS011;6045;42.682;23.294;2022-12-07T13:28:17;7.43;;;5.55;;
11970;SDS011;6045;42.682;23.294;2022-12-07T13:30:50;9.90;;;6.35;;
11970;SDS011;6045;42.682;23.294;2022-12-07T13:33:27;10.15;;;5.38;;
11970;SDS011;6045;42.682;23.294;2022-12-07T13:35:55;10.30;;;6.07;;
11970;SDS011;6045;42.682;23.294;2022-12-07T13:38:27;10.18;;;5.50;;
11970;SDS011;6045;42.682;23.294;2022-12-07T13:40:59;10.05;;;5.78;;
11970;SDS011;6045;42.682;23.294;2022-12-07T13:43:30;7.70;;;4.93;;
11970;SDS011;6045;42.682;23.294;2022-12-07T13:45:58;6.97;;;4.35;;
11970;SDS011;6045;42.682;23.294;2022-12-07T13:48:28;6.95;;;4.63;;
11970;SDS011;6045;42.682;23.294;2022-12-07T13:50:59;7.13;;;4.32;;
11970;SDS011;6045;42.682;23.294;2022-12-07T13:53:27;9.00;;;5.28;;
11970;SDS011;6045;42.682;23.294;2022-12-07T13:55:55;9.10;;;5.15;;
11970;SDS011;6045;42.682;23.294;2022-12-07T13:58:23;7.72;;;4.53;;
11970;SDS011;6045;42.682;23.294;2022-12-07T14:00:50;6.60;;;4.70;;
11970;SDS011;6045;42.682;23.294;2022-12-07T14:03:27;8.38;;;5.30;;
11970;SDS011;6045;42.682;23.294;2022-12-07T14:06:04;6.10;;;4.00;;
11970;SDS011;6045;42.682;23.294;2022-12-07T14:08:40;7.53;;;3.80;;
11970;SDS011;6045;42.682;23.294;2022-12-07T14:11:08;9.75;;;5.07;;
11970;SDS011;6045;42.682;23.294;2022-12-07T14:13:39;10.23;;;5.10;;
11970;SDS011;6045;42.682;23.294;2022-12-07T14:16:22;8.07;;;4.45;;
11970;SDS011;6045;42.682;23.294;2022-12-07T14:18:54;8.88;;;4.22;;
11970;SDS011;6045;42.682;23.294;2022-12-07T14:21:22;8.15;;;4.47;;
11970;SDS011;6045;42.682;23.294;2022-12-07T14:26:45;8.95;;;5.78;;
11970;SDS011;6045;42.682;23.294;2022-12-07T14:29:30;8.02;;;5.22;;
11970;SDS011;6045;42.682;23.294;2022-12-07T14:34:53;13.52;;;5.38;;
11970;SDS011;6045;42.682;23.294;2022-12-07T14:37:24;6.68;;;4.68;;
11970;SDS011;6045;42.682;23.294;2022-12-07T14:39:52;8.17;;;4.20;;
11970;SDS011;6045;42.682;23.294;2022-12-07T14:42:19;5.43;;;3.77;;
11970;SDS011;6045;42.682;23.294;2022-12-07T14:44:46;7.43;;;4.80;;
11970;SDS011;6045;42.682;23.294;2022-12-07T14:47:13;8.20;;;5.30;;
11970;SDS011;6045;42.682;23.294;2022-12-07T14:49:40;8.83;;;4.03;;
11970;SDS011;6045;42.682;23.294;2022-12-07T14:52:11;7.70;;;4.80;;
11970;SDS011;6045;42.682;23.294;2022-12-07T14:54:40;7.70;;;4.20;;
11970;SDS011;6045;42.682;23.294;2022-12-07T14:57:08;6.63;;;3.93;;
11970;SDS011;6045;42.682;23.294;2022-12-07T14:59:35;10.77;;;5.03;;
11970;SDS011;6045;42.682;23.294;2022-12-07T15:02:02;11.63;;;4.73;;
11970;SDS011;6045;42.682;23.294;2022-12-07T15:04:29;8.80;;;4.63;;
11970;SDS011;6045;42.682;23.294;2022-12-07T15:06:56;7.40;;;4.97;;
11970;SDS011;6045;42.682;23.294;2022-12-07T15:09:25;7.80;;;4.40;;
11970;SDS011;6045;42.682;23.294;2022-12-07T15:11:52;9.63;;;5.20;;
11970;SDS011;6045;42.682;23.294;2022-12-07T15:14:18;7.80;;;3.73;;
11970;SDS011;6045;42.682;23.294;2022-12-07T15:16:45;9.60;;;4.43;;
11970;SDS011;6045;42.682;23.294;2022-12-07T15:19:13;8.40;;;5.03;;
11970;SDS011;6045;42.682;23.294;2022-12-07T15:21:41;9.17;;;4.37;;
11970;SDS011;6045;42.682;23.294;2022-12-07T15:24:09;9.67;;;3.93;;
11970;SDS011;6045;42.682;23.294;2022-12-07T15:26:38;6.23;;;4.63;;
11970;SDS011;6045;42.682;23.294;2022-12-07T15:29:06;7.90;;;4.30;;
11970;SDS011;6045;42.682;23.294;2022-12-07T15:31:33;11.07;;;5.90;;